Flight Track Log - Related Links

Times and Time Zones

All times are in EDT time to prevent confusion due to time zone crossing. See the EJA673 flight status page for this flight to view local times or setup timezone preferences in your user account.

Time Position Orientation Groundspeed Altitude Reporting Facility
EDT Latitude Longitude Course Direction KTS MPH feet Rate Location/Type
Fri 12:38:15 PM 40.6236 -76.0289 23° Northeast 277 319 5,800  Level New York Center
Fri 12:39:15 PM 40.6942 -75.9933 21° North 285 328 6,200 908 Climbing New York Center
Fri 12:40:14 PM 40.7686 -75.9581 20° North 285 328 7,600 2,269 Climbing New York Center
Fri 12:41:00 PM 40.9222 -75.8612 37° Northeast  Level FlightAware Approximate
Fri 12:41:14 PM 40.8411 -75.9194 22° Northeast 280 322 10,700  Level New York Center
Fri 12:42:00 PM 41.0208 -75.8117 17° North  Level FlightAware Approximate
Fri 12:42:12 PM 40.9264 -75.8739 22° Northeast 298 343 11,700  Level New York Center
Fri 12:43:00 PM 41.1213 -75.7593 23° Northeast  Level FlightAware Approximate
Fri 12:43:14 PM 41.0075 -75.8303 22° Northeast 324 373 13,200  Level New York Center
Fri 12:44:14 PM 41.1033 -75.7797 22° Northeast 341 392 15,400 1,563 Climbing New York Center
Fri 12:45:13 PM 41.1969 -75.7314 21° North 341 392 16,300 750 Climbing New York Center
Fri 12:46:14 PM 41.2867 -75.6800 23° Northeast 348 400 16,900 393 Climbing New York Center
Fri 12:47:15 PM 41.3942 -75.5994 29° Northeast 386 444 17,100 545 Climbing New York Center
Fri 12:48:15 PM 41.4906 -75.5289 29° Northeast 397 457 18,000 1,068 Climbing New York Center
Fri 12:49:13 PM 41.5722 -75.4653 30° Northeast 397 457 19,200 580 Climbing New York Center
Fri 12:51:42 PM 41.8317 -75.2656 30° Northeast 407 468 20,000 258 Climbing Boston Center
Fri 12:52:42 PM 41.9314 -75.1917 29° Northeast 407 468 20,100 1,000 Climbing Boston Center
Fri 12:53:54 PM 42.0536 -75.1383 18° North 385 443 22,200 1,727 Climbing Boston Center
Fri 12:54:54 PM 42.1564 -75.1092 12° North 380 437 23,900 1,550 Climbing Boston Center
Fri 12:55:54 PM 42.2497 -75.0403 29° Northeast 375 432 25,300 1,300 Climbing Boston Center
Fri 12:56:54 PM 42.3431 -74.9628 32° Northeast 375 432 26,500 850 Climbing Boston Center
Fri 12:57:54 PM 42.4386 -74.8822 32° Northeast 393 452 27,000 250 Climbing Boston Center
Fri 12:58:54 PM 42.5386 -74.7986 32° Northeast 405 466 27,000  Level Boston Center
Fri 12:59:54 PM 42.6358 -74.7206 31° Northeast 427 491 27,000  Level Boston Center
Fri 01:00:54 PM 42.7356 -74.6394 31° Northeast 427 491 27,000  Level Boston Center
Fri 01:01:54 PM 42.8350 -74.5550 32° Northeast 427 491 27,000  Level Boston Center
Fri 01:02:54 PM 42.9367 -74.4736 30° Northeast 421 484 27,000 -450 Level Boston Center
Fri 01:03:54 PM 43.0361 -74.3858 33° Northeast 421 484 26,100 -950 Descending Boston Center
Fri 01:04:54 PM 43.1417 -74.3011 30° Northeast 426 490 25,100 -1,000 Descending Boston Center
Fri 01:05:54 PM 43.2453 -74.2131 32° Northeast 431 496 24,100 -550 Descending Boston Center
Fri 01:06:54 PM 43.3486 -74.1247 32° Northeast 437 503 24,000 -50 Descending Boston Center
Fri 01:07:54 PM 43.4375 -74.0469 32° Northeast 425 489 24,000 -850 Level Boston Center
Fri 01:08:54 PM 43.5575 -73.9469 31° Northeast 420 483 22,300 -1,850 Descending Boston Center
Fri 01:09:54 PM 43.6544 -73.8633 32° Northeast 420 483 20,300 -1,800 Descending Boston Center
Fri 01:10:54 PM 43.7386 -73.7906 32° Northeast 415 478 18,700 -1,850 Descending Boston Center
Fri 01:11:54 PM 43.8314 -73.7122 31° Northeast 401 461 16,600 -1,900 Descending Boston Center
Fri 01:12:54 PM 43.9175 -73.6419 30° Northeast 372 428 14,900 -1,700 Descending Boston Center
Fri 01:13:54 PM 44.0036 -73.5658 32° Northeast 367 422 13,200 -1,700 Descending Boston Center
Fri 01:14:54 PM 44.0856 -73.4950 32° Northeast 360 414 11,500 -1,650 Descending Boston Center
Fri 01:15:54 PM 44.1633 -73.4269 32° Northeast 345 397 9,900 -1,650 Descending Boston Center
Fri 01:16:54 PM 44.2389 -73.3586 33° Northeast 298 343 8,200 -1,800 Descending Boston Center
Fri 01:17:54 PM 44.3097 -73.3453 North 259 298 6,300 -2,200 Descending Boston Center
Fri 01:18:54 PM 44.3806 -73.3636 350° North 249 287 3,800 -1,650 Descending Boston Center
Fri 01:19:54 PM 44.4428 -73.3822 348° North 244 281 3,000 -550 Descending Boston Center
Fri 01:20:54 PM 44.5011 -73.3831 359° North 218 251 2,700 -500 Descending Boston Center
Fri 01:21:54 PM 44.5225 -73.3164 66° East 157 181 2,000 -350 Descending Boston Center
Fri 01:22:54 PM 44.5292 -73.2583 81° East 157 181 2,000 -400 Level Boston Center
Fri 01:23:54 PM 44.5067 -73.2114 124° Southeast 138 159 1,200 -750 Descending Boston Center
Fri 01:24:54 PM 44.4839 -73.1733 130° Southeast 138 159 500 -400 Descending Boston Center
Fri 01:25:54 PM 44.4717 -73.1558 134° Southeast 106 122 400 -100 Descending Boston Center
Fri 01:27:00 PM 44.4667 -73.1500 125° Southeast  Level FlightAware Approximate
Fri 01:34:00 PM 44.4719 -73.1533 125° Southeast  Level Estimated

Login

Don't have an account? Register now (free) for customized features, flight alerts, and more!